createdAt,value
2023-11-01T00:00:59.090Z,99.43
2023-11-01T00:03:35.217Z,99.16
2023-11-01T00:06:12.490Z,99.13
2023-11-01T00:08:48.209Z,98.93
2023-11-01T00:11:28.360Z,100.00
2023-11-01T00:13:56.993Z,100.00
2023-11-01T00:16:37.390Z,100.00
2023-11-01T00:19:13.088Z,100.00
2023-11-01T00:21:48.385Z,100.00
2023-11-01T00:24:19.468Z,100.00
2023-11-01T00:26:59.165Z,100.00
2023-11-01T00:29:35.159Z,100.00
2023-11-01T00:32:05.914Z,100.00
2023-11-01T00:34:41.669Z,100.00
2023-11-01T00:37:12.450Z,100.00
2023-11-01T00:39:48.083Z,100.00
2023-11-01T00:42:21.358Z,100.00
2023-11-01T00:44:50.903Z,100.00
2023-11-01T00:47:25.375Z,100.00
2023-11-01T00:50:04.338Z,100.00
2023-11-01T00:52:41.156Z,100.00
2023-11-01T00:55:11.544Z,100.00
2023-11-01T00:57:54.697Z,100.00
2023-11-01T01:00:29.433Z,100.00
2023-11-01T01:03:03.788Z,100.00
2023-11-01T01:05:41.734Z,100.00
2023-11-01T01:08:13.083Z,100.00
2023-11-01T01:10:51.897Z,100.00
2023-11-01T01:13:24.638Z,100.00
2023-11-01T01:16:07.607Z,100.00
2023-11-01T01:18:38.319Z,100.00
2023-11-01T01:21:13.279Z,100.00
2023-11-01T01:23:47.205Z,100.00
2023-11-01T01:26:17.733Z,100.00
2023-11-01T01:28:51.460Z,100.00
2023-11-01T01:31:22.468Z,100.00
2023-11-01T01:34:13.213Z,100.00
2023-11-01T01:36:41.498Z,100.00
2023-11-01T01:39:15.313Z,100.00
2023-11-01T01:41:47.735Z,100.00
2023-11-01T01:44:17.356Z,100.00
2023-11-01T01:46:51.109Z,100.00
2023-11-01T01:49:39.813Z,100.00
2023-11-01T01:52:16.707Z,100.00
2023-11-01T01:54:52.997Z,100.00
2023-11-01T01:57:31.649Z,100.00
2023-11-01T02:00:08.888Z,100.00
2023-11-01T02:02:47.154Z,100.00
2023-11-01T02:08:03.294Z,100.00
2023-11-01T02:10:38.418Z,100.00
2023-11-01T02:13:22.278Z,100.00
2023-11-01T02:15:53.233Z,100.00
2023-11-01T02:18:22.708Z,100.00
2023-11-01T02:20:55.386Z,100.00
2023-11-01T02:23:38.567Z,100.00
2023-11-01T02:26:12.383Z,100.00
2023-11-01T02:28:42.341Z,100.00
2023-11-01T02:31:15.638Z,100.00
2023-11-01T02:33:45.684Z,100.00
2023-11-01T02:36:14.588Z,100.00
2023-11-01T02:38:45.467Z,100.00
2023-11-01T02:41:18.245Z,100.00
2023-11-01T02:43:50.394Z,100.00
2023-11-01T02:46:23.796Z,100.00
2023-11-01T02:49:02.660Z,100.00
2023-11-01T02:51:31.863Z,100.00
2023-11-01T02:54:07.046Z,100.00
2023-11-01T02:56:35.757Z,100.00
2023-11-01T02:59:05.233Z,100.00
2023-11-01T03:01:34.942Z,100.00
2023-11-01T03:04:08.175Z,100.00
2023-11-01T03:06:37.734Z,100.00
2023-11-01T03:09:07.216Z,100.00
2023-11-01T03:11:38.294Z,100.00
2023-11-01T03:14:11.852Z,100.00
2023-11-01T03:16:45.505Z,100.00
2023-11-01T03:19:15.690Z,100.00
2023-11-01T03:21:46.137Z,100.00
2023-11-01T03:24:15.801Z,100.00
2023-11-01T03:26:48.262Z,100.00
2023-11-01T03:29:17.136Z,100.00
2023-11-01T03:31:47.386Z,100.00
2023-11-01T03:34:21.014Z,100.00
2023-11-01T03:36:50.003Z,100.00
2023-11-01T03:39:21.463Z,100.00
2023-11-01T03:41:51.009Z,100.00
2023-11-01T03:44:21.245Z,100.00
2023-11-01T03:46:55.324Z,100.00
2023-11-01T03:49:35.421Z,100.00
2023-11-01T03:52:05.830Z,100.00
2023-11-01T03:54:38.415Z,100.00
2023-11-01T03:57:08.953Z,100.00
2023-11-01T03:59:38.295Z,100.00
2023-11-01T04:02:11.688Z,100.00
2023-11-01T04:04:41.360Z,100.00
2023-11-01T04:07:11.923Z,100.00
2023-11-01T04:09:45.203Z,100.00
2023-11-01T04:12:24.365Z,100.00
2023-11-01T04:14:55.542Z,100.00
2023-11-01T04:17:28.577Z,100.00
2023-11-01T04:20:02.243Z,100.00
2023-11-01T04:22:31.754Z,100.00
2023-11-01T04:25:03.099Z,100.00
2023-11-01T04:27:37.366Z,100.00
2023-11-01T04:30:09.530Z,100.00
2023-11-01T04:32:43.816Z,100.00
2023-11-01T04:35:18.737Z,100.00
2023-11-01T04:37:48.728Z,100.00
2023-11-01T04:40:18.965Z,100.00
2023-11-01T04:42:51.351Z,100.00
2023-11-01T04:45:20.601Z,100.00
2023-11-01T04:47:55.598Z,100.00
2023-11-01T04:50:27.992Z,100.00
2023-11-01T04:52:58.058Z,100.00
2023-11-01T04:55:30.562Z,100.00
2023-11-01T04:58:04.200Z,100.00
2023-11-01T05:00:36.685Z,100.00
2023-11-01T05:03:10.194Z,100.00
2023-11-01T05:05:40.384Z,100.00
2023-11-01T05:08:09.460Z,100.00
2023-11-01T05:10:41.819Z,100.00
2023-11-01T05:13:12.480Z,100.00
2023-11-01T05:15:46.736Z,100.00
2023-11-01T05:18:15.640Z,100.00
2023-11-01T05:20:47.545Z,100.00
2023-11-01T05:23:18.403Z,100.00
2023-11-01T05:25:49.342Z,100.00
2023-11-01T05:28:25.112Z,100.00
2023-11-01T05:31:06.252Z,100.00
2023-11-01T05:33:36.337Z,100.00
2023-11-01T05:36:10.802Z,100.00
2023-11-01T05:38:44.941Z,100.00
2023-11-01T05:41:14.974Z,100.00
2023-11-01T05:43:45.431Z,100.00
2023-11-01T05:46:14.385Z,100.00
2023-11-01T05:48:48.090Z,100.00
2023-11-01T05:51:16.506Z,100.00
2023-11-01T05:53:54.630Z,100.00
2023-11-01T05:56:28.012Z,100.00
2023-11-01T05:59:07.634Z,100.00
2023-11-01T06:01:41.733Z,100.00
2023-11-01T06:04:23.801Z,100.00
2023-11-01T06:07:00.374Z,100.00
2023-11-01T06:09:39.488Z,100.00
2023-11-01T06:12:09.498Z,100.00
2023-11-01T06:14:40.354Z,100.00
2023-11-01T06:17:09.532Z,100.00
2023-11-01T06:19:43.588Z,100.00
2023-11-01T06:22:13.519Z,100.00
2023-11-01T06:24:47.107Z,100.00
2023-11-01T06:27:17.167Z,100.00
2023-11-01T06:29:49.455Z,100.00
2023-11-01T06:32:29.912Z,100.00
2023-11-01T06:35:03.223Z,100.00
2023-11-01T06:37:38.901Z,100.00
2023-11-01T06:40:14.925Z,100.00
2023-11-01T06:42:44.934Z,100.00
2023-11-01T06:45:16.877Z,100.00
2023-11-01T06:47:50.016Z,100.00
2023-11-01T06:50:19.134Z,100.00
2023-11-01T06:52:49.207Z,100.00
2023-11-01T06:55:27.165Z,100.00
2023-11-01T06:57:57.834Z,100.00
2023-11-01T07:00:32.188Z,100.00
2023-11-01T07:03:04.046Z,100.00
2023-11-01T07:05:35.857Z,100.00
2023-11-01T07:08:05.292Z,100.00
2023-11-01T07:10:33.069Z,100.00
2023-11-01T07:13:00.469Z,100.00
2023-11-01T07:15:29.683Z,100.00
2023-11-01T07:17:58.531Z,100.00
2023-11-01T07:20:28.359Z,100.00
2023-11-01T07:23:01.724Z,100.00
2023-11-01T07:25:29.851Z,100.00
2023-11-01T07:27:58.857Z,100.00
2023-11-01T07:30:33.277Z,100.00
2023-11-01T07:33:05.619Z,100.00
2023-11-01T07:35:35.966Z,100.00
2023-11-01T07:38:07.044Z,100.00
2023-11-01T07:40:35.959Z,100.00
2023-11-01T07:43:09.032Z,100.00
2023-11-01T07:45:40.972Z,100.00
2023-11-01T07:48:08.912Z,100.00
2023-11-01T07:50:40.631Z,100.00
2023-11-01T07:53:10.581Z,100.00
2023-11-01T07:55:39.735Z,100.00
2023-11-01T07:58:08.568Z,99.17
2023-11-01T08:00:38.558Z,99.61
2023-11-01T08:03:07.372Z,98.97
2023-11-01T08:05:35.743Z,96.01
2023-11-01T08:08:05.556Z,94.60
2023-11-01T08:10:33.341Z,92.94
2023-11-01T08:13:03.582Z,89.90
2023-11-01T08:15:35.867Z,88.21
2023-11-01T08:18:06.918Z,85.71
2023-11-01T08:20:35.415Z,81.95
2023-11-01T08:23:03.132Z,79.61
2023-11-01T08:25:30.799Z,82.08
2023-11-01T08:28:00.969Z,78.97
2023-11-01T08:30:29.964Z,78.60
2023-11-01T08:32:59.086Z,78.21
2023-11-01T08:35:30.839Z,78.41
2023-11-01T08:37:58.801Z,79.72
2023-11-01T08:40:37.076Z,78.47
2023-11-01T08:43:09.124Z,76.71
2023-11-01T08:45:37.153Z,74.44
2023-11-01T08:48:04.877Z,74.23
2023-11-01T08:50:34.349Z,72.52
2023-11-01T08:53:06.276Z,71.22
2023-11-01T08:55:38.139Z,72.58
2023-11-01T08:58:08.377Z,73.10
2023-11-01T09:00:45.264Z,71.20
2023-11-01T09:03:17.815Z,70.45
2023-11-01T09:05:50.140Z,69.75
2023-11-01T09:08:21.079Z,69.61
2023-11-01T09:10:52.975Z,68.63
2023-11-01T09:13:26.417Z,69.58
2023-11-01T09:15:57.292Z,69.19
2023-11-01T09:18:28.505Z,67.34
2023-11-01T09:20:56.676Z,66.95
2023-11-01T09:23:30.479Z,66.91
2023-11-01T09:26:03.408Z,67.02
2023-11-01T09:28:33.723Z,66.37
2023-11-01T09:31:07.029Z,66.23
2023-11-01T09:33:44.505Z,65.50
2023-11-01T09:36:16.633Z,65.06
2023-11-01T09:38:44.629Z,65.79
2023-11-01T09:41:24.787Z,64.46
2023-11-01T09:44:04.714Z,64.24
2023-11-01T09:46:38.569Z,63.11
2023-11-01T09:49:12.138Z,63.88
2023-11-01T09:51:43.083Z,62.99
2023-11-01T09:54:19.480Z,62.43
2023-11-01T09:56:55.370Z,63.24
2023-11-01T09:59:25.204Z,61.86
2023-11-01T10:01:53.903Z,61.69
2023-11-01T10:04:22.519Z,60.91
2023-11-01T10:06:50.533Z,60.36
2023-11-01T10:09:18.283Z,60.93
2023-11-01T10:11:53.937Z,62.29
2023-11-01T10:14:32.859Z,61.22
2023-11-01T10:17:01.854Z,59.38
2023-11-01T10:19:31.629Z,60.18
2023-11-01T10:22:00.986Z,60.46
2023-11-01T10:24:31.947Z,59.63
2023-11-01T10:27:01.181Z,59.67
2023-11-01T10:29:48.904Z,60.07
2023-11-01T10:32:21.548Z,60.70
2023-11-01T10:34:49.918Z,61.88
2023-11-01T10:37:24.535Z,58.24
2023-11-01T10:39:57.028Z,56.56
2023-11-01T10:42:26.671Z,58.00
2023-11-01T10:44:56.203Z,58.04
2023-11-01T10:47:30.624Z,58.29
2023-11-01T10:49:59.557Z,58.34
2023-11-01T10:52:31.229Z,58.57
2023-11-01T10:55:02.033Z,58.13
2023-11-01T10:57:32.209Z,58.39
2023-11-01T11:00:21.772Z,59.29
2023-11-01T11:03:19.458Z,57.17
2023-11-01T11:05:54.334Z,56.88
2023-11-01T11:08:23.980Z,57.82
2023-11-01T11:11:00.407Z,58.75
2023-11-01T11:13:36.585Z,57.18
2023-11-01T11:16:12.642Z,58.59
2023-11-01T11:18:49.014Z,56.26
2023-11-01T11:21:48.635Z,55.53
2023-11-01T11:24:44.769Z,56.63
2023-11-01T11:27:47.069Z,57.64
2023-11-01T11:30:17.543Z,55.50
2023-11-01T11:32:52.785Z,55.37
2023-11-01T11:35:25.980Z,55.05
2023-11-01T11:37:54.896Z,55.71
2023-11-01T11:40:30.334Z,54.41
2023-11-01T11:43:04.481Z,56.53
2023-11-01T11:45:44.171Z,56.62
2023-11-01T11:48:43.773Z,57.02
2023-11-01T11:51:14.063Z,56.12
2023-11-01T11:53:51.897Z,56.72
2023-11-01T11:56:21.729Z,52.67
2023-11-01T11:58:53.292Z,52.34
2023-11-01T12:01:27.240Z,52.32
2023-11-01T12:04:01.561Z,53.47
2023-11-01T12:06:58.376Z,52.89
2023-11-01T12:09:30.938Z,53.29
2023-11-01T12:12:07.107Z,54.05
2023-11-01T12:14:37.862Z,52.91
2023-11-01T12:17:11.524Z,53.33
2023-11-01T12:19:47.242Z,52.75
2023-11-01T12:22:23.910Z,54.54
2023-11-01T12:24:59.342Z,53.72
2023-11-01T12:27:35.556Z,55.05
2023-11-01T12:30:05.720Z,53.37
2023-11-01T12:32:36.746Z,53.67
2023-11-01T12:35:08.247Z,54.23
2023-11-01T12:37:36.832Z,53.60
2023-11-01T12:40:15.709Z,52.70
2023-11-01T12:42:55.100Z,54.22
2023-11-01T12:45:25.374Z,54.54
2023-11-01T12:47:59.102Z,55.00
2023-11-01T12:50:33.094Z,54.78
2023-11-01T12:55:43.633Z,54.74
2023-11-01T12:58:14.583Z,55.22
2023-11-01T13:00:47.197Z,55.41
2023-11-01T13:03:16.637Z,56.08
2023-11-01T13:05:48.913Z,54.52
2023-11-01T13:08:24.638Z,55.57
2023-11-01T13:10:59.453Z,56.46
2023-11-01T13:13:32.406Z,56.06
2023-11-01T13:16:02.429Z,55.57
2023-11-01T13:18:36.870Z,56.89
2023-11-01T13:21:21.826Z,56.46
2023-11-01T13:24:01.228Z,56.42
2023-11-01T13:26:28.739Z,55.41
2023-11-01T13:29:01.308Z,56.08
2023-11-01T13:31:38.959Z,55.92
2023-11-01T13:34:15.156Z,55.83
2023-11-01T13:36:46.923Z,55.21
2023-11-01T13:39:20.089Z,56.01
2023-11-01T13:41:55.935Z,55.84
2023-11-01T13:44:26.291Z,55.54
2023-11-01T13:46:59.898Z,56.32
2023-11-01T13:49:35.351Z,56.59
2023-11-01T13:52:03.944Z,56.57
2023-11-01T13:54:31.716Z,56.84
2023-11-01T13:57:07.604Z,56.60
2023-11-01T13:59:36.985Z,56.18
2023-11-01T14:02:07.226Z,56.29
2023-11-01T14:04:40.172Z,57.07
2023-11-01T14:07:15.375Z,57.65
2023-11-01T14:09:47.692Z,57.02
2023-11-01T14:12:17.238Z,56.29
2023-11-01T14:14:55.692Z,56.65
2023-11-01T14:17:30.042Z,57.49
2023-11-01T14:20:03.307Z,58.36
2023-11-01T14:22:31.458Z,58.18
2023-11-01T14:25:03.711Z,58.75
2023-11-01T14:27:35.528Z,58.92
2023-11-01T14:30:03.790Z,58.94
2023-11-01T14:32:34.648Z,58.97
2023-11-01T14:35:03.570Z,57.83
2023-11-01T14:37:33.354Z,58.33
2023-11-01T14:40:04.480Z,57.36
2023-11-01T14:42:34.015Z,58.43
2023-11-01T14:45:02.651Z,59.65
2023-11-01T14:47:30.875Z,60.12
2023-11-01T14:49:58.241Z,61.61
2023-11-01T14:52:31.043Z,61.66
2023-11-01T14:54:59.327Z,62.14
2023-11-01T14:57:27.370Z,62.72
2023-11-01T14:59:56.655Z,63.06
2023-11-01T15:02:29.901Z,63.47
2023-11-01T15:04:58.918Z,63.91
2023-11-01T15:07:26.453Z,64.39
2023-11-01T15:09:55.431Z,64.82
2023-11-01T15:12:24.984Z,65.74
2023-11-01T15:14:58.864Z,66.28
2023-11-01T15:17:33.277Z,67.13
2023-11-01T15:20:01.960Z,67.66
2023-11-01T15:22:30.933Z,68.10
2023-11-01T15:24:58.009Z,68.42
2023-11-01T15:27:26.267Z,69.47
2023-11-01T15:29:54.136Z,69.69
2023-11-01T15:32:21.953Z,69.71
2023-11-01T15:34:49.133Z,70.06
2023-11-01T15:37:16.707Z,70.45
2023-11-01T15:39:47.846Z,70.78
2023-11-01T15:42:18.607Z,71.53
2023-11-01T15:44:46.187Z,71.79
2023-11-01T15:47:13.605Z,72.51
2023-11-01T15:49:40.774Z,72.95
2023-11-01T15:52:08.020Z,72.90
2023-11-01T15:54:34.910Z,73.32
2023-11-01T15:57:02.277Z,73.88
2023-11-01T15:59:29.457Z,74.44
2023-11-01T16:01:56.855Z,75.26
2023-11-01T16:04:24.264Z,75.50
2023-11-01T16:06:51.414Z,75.83
2023-11-01T16:09:19.460Z,76.31
2023-11-01T16:11:47.224Z,77.09
2023-11-01T16:14:19.036Z,77.80
2023-11-01T16:16:48.340Z,77.99
2023-11-01T16:19:15.564Z,78.73
2023-11-01T16:21:46.978Z,79.30
2023-11-01T16:24:14.579Z,79.73
2023-11-01T16:26:42.083Z,80.39
2023-11-01T16:29:10.009Z,80.88
2023-11-01T16:31:37.322Z,81.31
2023-11-01T16:34:04.606Z,81.88
2023-11-01T16:36:35.482Z,82.21
2023-11-01T16:39:02.826Z,82.10
2023-11-01T16:41:30.700Z,82.56
2023-11-01T16:43:57.992Z,82.57
2023-11-01T16:46:25.180Z,82.86
2023-11-01T16:48:52.486Z,82.99
2023-11-01T16:51:19.709Z,83.26
2023-11-01T16:53:47.891Z,83.58
2023-11-01T16:56:15.447Z,84.01
2023-11-01T16:58:42.916Z,84.21
2023-11-01T17:01:09.876Z,84.66
2023-11-01T17:03:36.936Z,84.67
2023-11-01T17:06:04.458Z,85.01
2023-11-01T17:08:32.675Z,85.01
2023-11-01T17:10:59.651Z,84.79
2023-11-01T17:13:27.230Z,84.44
2023-11-01T17:15:57.270Z,84.37
2023-11-01T17:18:25.272Z,84.49
2023-11-01T17:20:53.686Z,83.93
2023-11-01T17:23:20.912Z,84.02
2023-11-01T17:25:50.648Z,83.86
2023-11-01T17:28:26.269Z,83.43
2023-11-01T17:30:54.318Z,82.90
2023-11-01T17:33:34.225Z,83.58
2023-11-01T17:36:07.790Z,83.63
2023-11-01T17:38:41.900Z,83.75
2023-11-01T17:41:10.199Z,83.69
2023-11-01T17:43:49.010Z,83.74
2023-11-01T17:46:26.958Z,83.71
2023-11-01T17:49:09.724Z,83.68
2023-11-01T17:51:39.330Z,83.92
2023-11-01T17:54:11.935Z,83.98
2023-11-01T17:56:38.916Z,84.08
2023-11-01T17:59:09.334Z,83.90
2023-11-01T18:01:38.131Z,84.08
2023-11-01T18:04:07.314Z,84.11
2023-11-01T18:06:36.707Z,84.37
2023-11-01T18:09:21.940Z,83.97
2023-11-01T18:11:58.934Z,84.18
2023-11-01T18:14:33.490Z,84.09
2023-11-01T18:17:06.424Z,84.13
2023-11-01T18:19:42.201Z,84.58
2023-11-01T18:22:44.094Z,84.70
2023-11-01T18:25:34.176Z,84.59
2023-11-01T18:28:10.884Z,84.30
2023-11-01T18:30:50.769Z,84.35
2023-11-01T18:33:18.987Z,84.31
2023-11-01T18:35:48.475Z,84.34
2023-11-01T18:38:49.049Z,84.34
2023-11-01T18:41:24.346Z,83.95
2023-11-01T18:43:58.389Z,84.07
2023-11-01T18:46:34.112Z,84.01
2023-11-01T18:49:07.862Z,83.65
2023-11-01T18:51:59.885Z,83.44
2023-11-01T18:54:44.342Z,83.29
2023-11-01T18:57:20.512Z,83.50
2023-11-01T18:59:48.149Z,83.34
2023-11-01T19:02:36.546Z,83.09
2023-11-01T19:05:08.939Z,83.01
2023-11-01T19:07:41.298Z,83.20
2023-11-01T19:10:23.168Z,83.14
2023-11-01T19:12:54.083Z,83.35
2023-11-01T19:15:36.445Z,83.21
2023-11-01T19:18:08.409Z,83.11
2023-11-01T19:20:35.875Z,83.57
2023-11-01T19:23:02.951Z,83.54
2023-11-01T19:25:29.916Z,83.72
2023-11-01T19:27:56.880Z,83.83
2023-11-01T19:30:25.020Z,83.60
2023-11-01T19:32:53.398Z,83.63
2023-11-01T19:35:20.350Z,83.78
2023-11-01T19:37:47.444Z,84.09
2023-11-01T19:40:14.442Z,84.33
2023-11-01T19:42:41.518Z,84.34
2023-11-01T19:45:09.597Z,84.54
2023-11-01T19:47:39.212Z,84.57
2023-11-01T19:50:09.764Z,84.94
2023-11-01T19:52:38.203Z,85.00
2023-11-01T19:55:05.502Z,85.28
2023-11-01T19:57:33.747Z,85.25
2023-11-01T20:00:01.277Z,85.29
2023-11-01T20:02:29.703Z,85.59
2023-11-01T20:04:56.666Z,85.53
2023-11-01T20:07:25.806Z,85.53
2023-11-01T20:09:52.731Z,86.09
2023-11-01T20:12:21.567Z,86.28
2023-11-01T20:14:48.785Z,86.05
2023-11-01T20:17:15.683Z,85.94
2023-11-01T20:19:43.571Z,85.56
2023-11-01T20:22:10.599Z,85.07
2023-11-01T20:24:37.458Z,85.04
2023-11-01T20:27:05.009Z,84.95
2023-11-01T20:29:32.070Z,84.45
2023-11-01T20:31:59.327Z,84.54
2023-11-01T20:34:26.387Z,83.84
2023-11-01T20:36:53.688Z,83.59
2023-11-01T20:39:20.593Z,83.79
2023-11-01T20:41:47.706Z,83.71
2023-11-01T20:44:14.962Z,83.68
2023-11-01T20:46:41.867Z,83.43
2023-11-01T20:49:11.582Z,83.27
2023-11-01T20:51:39.446Z,83.25
2023-11-01T20:54:06.477Z,83.18
2023-11-01T20:56:37.962Z,82.98
2023-11-01T20:59:05.159Z,82.82
2023-11-01T21:01:32.079Z,82.81
2023-11-01T21:03:59.142Z,83.04
2023-11-01T21:06:26.756Z,83.08
2023-11-01T21:08:54.432Z,83.33
2023-11-01T21:11:21.486Z,83.29
2023-11-01T21:13:52.125Z,83.66
2023-11-01T21:16:19.044Z,83.92
2023-11-01T21:18:46.105Z,84.11
2023-11-01T21:21:13.365Z,84.16
2023-11-01T21:23:43.457Z,84.03
2023-11-01T21:26:10.751Z,84.18
2023-11-01T21:28:40.898Z,84.53
2023-11-01T21:31:11.263Z,84.54
2023-11-01T21:33:41.160Z,84.60
2023-11-01T21:36:08.659Z,84.83
2023-11-01T21:38:35.631Z,84.92
2023-11-01T21:41:02.664Z,84.94
2023-11-01T21:43:29.864Z,85.36
2023-11-01T21:45:56.757Z,85.19
2023-11-01T21:48:25.811Z,85.25
2023-11-01T21:51:01.146Z,85.30
2023-11-01T21:53:31.796Z,85.13
2023-11-01T21:55:59.949Z,85.17
2023-11-01T21:58:32.606Z,85.32
2023-11-01T22:01:05.379Z,85.27
2023-11-01T22:03:43.146Z,84.87
2023-11-01T22:06:11.469Z,84.88
2023-11-01T22:09:15.483Z,84.59
2023-11-01T22:11:45.965Z,84.75
2023-11-01T22:14:34.480Z,84.83
2023-11-01T22:17:04.136Z,85.04
2023-11-01T22:19:43.173Z,85.06
2023-11-01T22:22:32.580Z,84.97
2023-11-01T22:24:59.694Z,85.00
2023-11-01T22:27:39.284Z,85.36
2023-11-01T22:30:08.553Z,85.16
2023-11-01T22:32:35.685Z,85.27
2023-11-01T22:35:02.874Z,85.30
2023-11-01T22:37:29.899Z,85.41
2023-11-01T22:39:57.690Z,85.70
2023-11-01T22:42:32.569Z,85.56
2023-11-01T22:45:03.843Z,85.78
2023-11-01T22:47:31.226Z,85.91
2023-11-01T22:49:59.275Z,86.11
2023-11-01T22:52:26.155Z,86.22
2023-11-01T22:54:53.239Z,86.29
2023-11-01T22:57:20.285Z,86.30
2023-11-01T22:59:47.310Z,86.67
2023-11-01T23:02:16.639Z,86.73
2023-11-01T23:04:44.132Z,86.77
2023-11-01T23:07:11.965Z,87.13
2023-11-01T23:09:39.114Z,87.23
2023-11-01T23:12:06.954Z,87.52
2023-11-01T23:14:33.967Z,87.52
2023-11-01T23:17:01.313Z,87.59
2023-11-01T23:19:28.664Z,87.56
2023-11-01T23:21:55.537Z,87.66
2023-11-01T23:24:24.685Z,87.54
2023-11-01T23:26:58.625Z,87.84
2023-11-01T23:29:26.446Z,87.46
2023-11-01T23:31:53.877Z,87.68
2023-11-01T23:34:46.601Z,87.63
2023-11-01T23:37:35.260Z,87.56
2023-11-01T23:40:08.356Z,88.10
2023-11-01T23:42:35.537Z,87.48
2023-11-01T23:45:26.774Z,87.27
2023-11-01T23:47:55.624Z,87.31
2023-11-01T23:50:43.743Z,87.05
2023-11-01T23:53:18.482Z,87.25
2023-11-01T23:55:49.777Z,87.33
2023-11-01T23:58:29.714Z,87.29
